sensor_id;sensor_type;location;lat;lon;timestamp;P1;durP1;ratioP1;P2;durP2;ratioP2
51714;SDS011;39115;59.332;18.034;2023-02-22T00:00:13;2.00;;;1.15;;
51714;SDS011;39115;59.332;18.034;2023-02-22T00:02:38;2.13;;;0.90;;
51714;SDS011;39115;59.332;18.034;2023-02-22T00:04:59;3.72;;;1.42;;
51714;SDS011;39115;59.332;18.034;2023-02-22T00:07:19;2.30;;;1.30;;
51714;SDS011;39115;59.332;18.034;2023-02-22T00:09:40;2.97;;;1.27;;
51714;SDS011;39115;59.332;18.034;2023-02-22T00:12:00;2.67;;;1.52;;
51714;SDS011;39115;59.332;18.034;2023-02-22T00:14:21;3.20;;;1.27;;
51714;SDS011;39115;59.332;18.034;2023-02-22T00:16:45;3.67;;;1.10;;
51714;SDS011;39115;59.332;18.034;2023-02-22T00:19:06;3.33;;;1.20;;
51714;SDS011;39115;59.332;18.034;2023-02-22T00:21:26;2.15;;;1.00;;
51714;SDS011;39115;59.332;18.034;2023-02-22T00:23:47;1.83;;;1.00;;
51714;SDS011;39115;59.332;18.034;2023-02-22T00:26:08;1.52;;;1.02;;
51714;SDS011;39115;59.332;18.034;2023-02-22T00:28:29;2.08;;;0.88;;
51714;SDS011;39115;59.332;18.034;2023-02-22T00:30:50;2.63;;;0.93;;
51714;SDS011;39115;59.332;18.034;2023-02-22T00:33:11;1.42;;;0.88;;
51714;SDS011;39115;59.332;18.034;2023-02-22T00:35:32;2.40;;;1.08;;
51714;SDS011;39115;59.332;18.034;2023-02-22T00:37:54;3.08;;;1.00;;
51714;SDS011;39115;59.332;18.034;2023-02-22T00:40:19;1.77;;;0.90;;
51714;SDS011;39115;59.332;18.034;2023-02-22T00:42:42;1.90;;;0.90;;
51714;SDS011;39115;59.332;18.034;2023-02-22T00:45:03;2.63;;;0.90;;
51714;SDS011;39115;59.332;18.034;2023-02-22T00:47:26;2.58;;;1.05;;
51714;SDS011;39115;59.332;18.034;2023-02-22T00:49:47;2.95;;;1.13;;
51714;SDS011;39115;59.332;18.034;2023-02-22T00:52:07;1.73;;;0.93;;
51714;SDS011;39115;59.332;18.034;2023-02-22T00:54:28;1.40;;;0.88;;
51714;SDS011;39115;59.332;18.034;2023-02-22T00:56:48;2.55;;;0.88;;
51714;SDS011;39115;59.332;18.034;2023-02-22T00:59:09;2.15;;;1.27;;
51714;SDS011;39115;59.332;18.034;2023-02-22T01:01:30;2.65;;;0.85;;
51714;SDS011;39115;59.332;18.034;2023-02-22T01:03:51;1.95;;;1.10;;
51714;SDS011;39115;59.332;18.034;2023-02-22T01:06:12;2.85;;;1.00;;
51714;SDS011;39115;59.332;18.034;2023-02-22T01:08:32;2.42;;;1.40;;
51714;SDS011;39115;59.332;18.034;2023-02-22T01:10:53;1.90;;;1.20;;
51714;SDS011;39115;59.332;18.034;2023-02-22T01:13:14;2.30;;;1.10;;
51714;SDS011;39115;59.332;18.034;2023-02-22T01:15:37;1.50;;;0.90;;
51714;SDS011;39115;59.332;18.034;2023-02-22T01:17:59;2.00;;;1.00;;
51714;SDS011;39115;59.332;18.034;2023-02-22T01:20:21;2.63;;;1.30;;
51714;SDS011;39115;59.332;18.034;2023-02-22T01:22:42;2.75;;;0.90;;
51714;SDS011;39115;59.332;18.034;2023-02-22T01:25:05;2.38;;;0.90;;
51714;SDS011;39115;59.332;18.034;2023-02-22T01:27:26;2.30;;;0.98;;
51714;SDS011;39115;59.332;18.034;2023-02-22T01:29:47;2.15;;;1.30;;
51714;SDS011;39115;59.332;18.034;2023-02-22T01:32:09;3.65;;;1.20;;
51714;SDS011;39115;59.332;18.034;2023-02-22T01:34:31;3.72;;;1.30;;
51714;SDS011;39115;59.332;18.034;2023-02-22T01:36:52;2.03;;;0.90;;
51714;SDS011;39115;59.332;18.034;2023-02-22T01:39:12;2.92;;;1.02;;
51714;SDS011;39115;59.332;18.034;2023-02-22T01:41:33;2.67;;;0.95;;
51714;SDS011;39115;59.332;18.034;2023-02-22T01:43:53;3.33;;;1.45;;
51714;SDS011;39115;59.332;18.034;2023-02-22T01:46:21;1.73;;;1.00;;
51714;SDS011;39115;59.332;18.034;2023-02-22T01:48:53;2.35;;;1.20;;
51714;SDS011;39115;59.332;18.034;2023-02-22T01:51:19;1.15;;;0.90;;
51714;SDS011;39115;59.332;18.034;2023-02-22T01:53:47;1.85;;;0.93;;
51714;SDS011;39115;59.332;18.034;2023-02-22T01:56:23;2.55;;;0.98;;
51714;SDS011;39115;59.332;18.034;2023-02-22T01:58:47;1.80;;;1.20;;
51714;SDS011;39115;59.332;18.034;2023-02-22T02:01:10;4.25;;;1.23;;
51714;SDS011;39115;59.332;18.034;2023-02-22T02:03:31;1.45;;;1.00;;
51714;SDS011;39115;59.332;18.034;2023-02-22T02:05:55;2.20;;;1.08;;
51714;SDS011;39115;59.332;18.034;2023-02-22T02:08:26;4.15;;;1.23;;
51714;SDS011;39115;59.332;18.034;2023-02-22T02:10:48;2.65;;;1.00;;
51714;SDS011;39115;59.332;18.034;2023-02-22T02:13:09;2.13;;;1.13;;
51714;SDS011;39115;59.332;18.034;2023-02-22T02:15:31;2.00;;;1.13;;
51714;SDS011;39115;59.332;18.034;2023-02-22T02:17:53;1.95;;;1.30;;
51714;SDS011;39115;59.332;18.034;2023-02-22T02:22:54;4.43;;;1.20;;
51714;SDS011;39115;59.332;18.034;2023-02-22T02:33:12;2.47;;;1.52;;
51714;SDS011;39115;59.332;18.034;2023-02-22T02:38:38;1.95;;;1.60;;
51714;SDS011;39115;59.332;18.034;2023-02-22T02:41:26;1.30;;;0.70;;
51714;SDS011;39115;59.332;18.034;2023-02-22T02:43:59;2.22;;;1.10;;
51714;SDS011;39115;59.332;18.034;2023-02-22T02:46:34;1.80;;;0.90;;
51714;SDS011;39115;59.332;18.034;2023-02-22T02:49:05;2.70;;;1.08;;
51714;SDS011;39115;59.332;18.034;2023-02-22T02:51:31;2.55;;;1.27;;
51714;SDS011;39115;59.332;18.034;2023-02-22T02:53:55;2.88;;;1.67;;
51714;SDS011;39115;59.332;18.034;2023-02-22T02:56:17;1.98;;;1.05;;
51714;SDS011;39115;59.332;18.034;2023-02-22T02:58:42;2.13;;;1.13;;
51714;SDS011;39115;59.332;18.034;2023-02-22T03:01:09;3.60;;;1.27;;
51714;SDS011;39115;59.332;18.034;2023-02-22T03:03:42;2.80;;;1.20;;
51714;SDS011;39115;59.332;18.034;2023-02-22T03:17:16;2.67;;;1.25;;
51714;SDS011;39115;59.332;18.034;2023-02-22T03:22:29;2.63;;;1.25;;
51714;SDS011;39115;59.332;18.034;2023-02-22T03:27:47;2.83;;;1.08;;
51714;SDS011;39115;59.332;18.034;2023-02-22T03:30:17;2.40;;;0.88;;
51714;SDS011;39115;59.332;18.034;2023-02-22T03:32:44;3.25;;;1.10;;
51714;SDS011;39115;59.332;18.034;2023-02-22T03:35:08;5.93;;;1.30;;
51714;SDS011;39115;59.332;18.034;2023-02-22T03:37:36;7.65;;;1.33;;
51714;SDS011;39115;59.332;18.034;2023-02-22T03:40:02;3.28;;;1.20;;
51714;SDS011;39115;59.332;18.034;2023-02-22T03:42:33;3.38;;;1.35;;
51714;SDS011;39115;59.332;18.034;2023-02-22T03:45:00;2.90;;;1.17;;
51714;SDS011;39115;59.332;18.034;2023-02-22T03:47:30;2.65;;;0.90;;
51714;SDS011;39115;59.332;18.034;2023-02-22T03:49:59;1.90;;;1.00;;
51714;SDS011;39115;59.332;18.034;2023-02-22T03:52:25;3.45;;;1.10;;
51714;SDS011;39115;59.332;18.034;2023-02-22T03:54:46;2.22;;;1.15;;
51714;SDS011;39115;59.332;18.034;2023-02-22T03:57:09;2.17;;;1.10;;
51714;SDS011;39115;59.332;18.034;2023-02-22T03:59:34;2.65;;;0.90;;
51714;SDS011;39115;59.332;18.034;2023-02-22T04:01:56;2.13;;;1.17;;
51714;SDS011;39115;59.332;18.034;2023-02-22T04:04:17;2.00;;;1.10;;
51714;SDS011;39115;59.332;18.034;2023-02-22T04:06:37;2.17;;;1.20;;
51714;SDS011;39115;59.332;18.034;2023-02-22T04:08:58;2.22;;;1.10;;
51714;SDS011;39115;59.332;18.034;2023-02-22T04:11:19;3.40;;;1.80;;
51714;SDS011;39115;59.332;18.034;2023-02-22T04:13:39;2.70;;;1.10;;
51714;SDS011;39115;59.332;18.034;2023-02-22T04:15:59;3.20;;;1.33;;
51714;SDS011;39115;59.332;18.034;2023-02-22T04:18:20;1.73;;;1.13;;
51714;SDS011;39115;59.332;18.034;2023-02-22T04:20:40;4.38;;;1.15;;
51714;SDS011;39115;59.332;18.034;2023-02-22T04:23:02;2.78;;;1.40;;
51714;SDS011;39115;59.332;18.034;2023-02-22T04:25:23;3.08;;;1.23;;
51714;SDS011;39115;59.332;18.034;2023-02-22T04:27:43;2.35;;;1.40;;
51714;SDS011;39115;59.332;18.034;2023-02-22T04:30:04;1.98;;;1.00;;
51714;SDS011;39115;59.332;18.034;2023-02-22T04:32:25;5.05;;;1.20;;
51714;SDS011;39115;59.332;18.034;2023-02-22T04:34:46;4.22;;;1.20;;
51714;SDS011;39115;59.332;18.034;2023-02-22T04:37:07;3.72;;;1.48;;
51714;SDS011;39115;59.332;18.034;2023-02-22T04:39:29;4.68;;;2.00;;
51714;SDS011;39115;59.332;18.034;2023-02-22T04:41:49;3.00;;;1.50;;
51714;SDS011;39115;59.332;18.034;2023-02-22T04:44:10;4.25;;;2.42;;
51714;SDS011;39115;59.332;18.034;2023-02-22T04:46:30;2.63;;;1.52;;
51714;SDS011;39115;59.332;18.034;2023-02-22T04:48:51;3.08;;;1.55;;
51714;SDS011;39115;59.332;18.034;2023-02-22T04:51:12;3.05;;;1.45;;
51714;SDS011;39115;59.332;18.034;2023-02-22T04:53:33;4.53;;;1.70;;
51714;SDS011;39115;59.332;18.034;2023-02-22T04:55:54;4.63;;;2.17;;
51714;SDS011;39115;59.332;18.034;2023-02-22T04:58:14;4.35;;;1.60;;
51714;SDS011;39115;59.332;18.034;2023-02-22T05:00:35;3.60;;;2.00;;
51714;SDS011;39115;59.332;18.034;2023-02-22T05:02:55;4.10;;;1.77;;
51714;SDS011;39115;59.332;18.034;2023-02-22T05:05:17;3.67;;;1.48;;
51714;SDS011;39115;59.332;18.034;2023-02-22T05:07:40;3.13;;;1.63;;
51714;SDS011;39115;59.332;18.034;2023-02-22T05:10:01;4.13;;;2.42;;
51714;SDS011;39115;59.332;18.034;2023-02-22T05:12:21;3.20;;;1.95;;
51714;SDS011;39115;59.332;18.034;2023-02-22T05:14:42;3.95;;;1.70;;
51714;SDS011;39115;59.332;18.034;2023-02-22T05:17:03;4.45;;;2.90;;
51714;SDS011;39115;59.332;18.034;2023-02-22T05:19:24;4.85;;;2.33;;
51714;SDS011;39115;59.332;18.034;2023-02-22T05:21:44;4.13;;;2.13;;
51714;SDS011;39115;59.332;18.034;2023-02-22T05:24:05;4.78;;;2.28;;
51714;SDS011;39115;59.332;18.034;2023-02-22T05:26:26;5.20;;;3.13;;
51714;SDS011;39115;59.332;18.034;2023-02-22T05:28:46;4.55;;;2.53;;
51714;SDS011;39115;59.332;18.034;2023-02-22T05:31:07;5.20;;;2.83;;
51714;SDS011;39115;59.332;18.034;2023-02-22T05:33:27;3.30;;;2.30;;
51714;SDS011;39115;59.332;18.034;2023-02-22T05:35:48;4.57;;;2.22;;
51714;SDS011;39115;59.332;18.034;2023-02-22T05:38:10;4.97;;;2.80;;
51714;SDS011;39115;59.332;18.034;2023-02-22T05:40:33;4.45;;;2.55;;
51714;SDS011;39115;59.332;18.034;2023-02-22T05:42:54;4.80;;;2.75;;
51714;SDS011;39115;59.332;18.034;2023-02-22T05:45:18;7.32;;;2.53;;
51714;SDS011;39115;59.332;18.034;2023-02-22T05:47:40;5.85;;;2.85;;
51714;SDS011;39115;59.332;18.034;2023-02-22T05:50:00;3.65;;;2.30;;
51714;SDS011;39115;59.332;18.034;2023-02-22T05:52:21;5.95;;;2.35;;
51714;SDS011;39115;59.332;18.034;2023-02-22T05:54:42;5.47;;;2.90;;
51714;SDS011;39115;59.332;18.034;2023-02-22T05:57:02;5.75;;;2.78;;
51714;SDS011;39115;59.332;18.034;2023-02-22T05:59:23;5.25;;;2.63;;
51714;SDS011;39115;59.332;18.034;2023-02-22T06:01:43;5.70;;;2.60;;
51714;SDS011;39115;59.332;18.034;2023-02-22T06:04:03;5.03;;;3.17;;
51714;SDS011;39115;59.332;18.034;2023-02-22T06:06:24;4.97;;;2.95;;
51714;SDS011;39115;59.332;18.034;2023-02-22T06:08:45;5.40;;;2.92;;
51714;SDS011;39115;59.332;18.034;2023-02-22T06:11:06;5.22;;;3.08;;
51714;SDS011;39115;59.332;18.034;2023-02-22T06:13:28;5.47;;;2.58;;
51714;SDS011;39115;59.332;18.034;2023-02-22T06:15:49;6.93;;;3.15;;
51714;SDS011;39115;59.332;18.034;2023-02-22T06:18:09;4.72;;;2.58;;
51714;SDS011;39115;59.332;18.034;2023-02-22T06:20:30;6.40;;;2.90;;
51714;SDS011;39115;59.332;18.034;2023-02-22T06:22:53;6.53;;;3.45;;
51714;SDS011;39115;59.332;18.034;2023-02-22T06:25:16;5.07;;;2.90;;
51714;SDS011;39115;59.332;18.034;2023-02-22T06:27:38;7.22;;;3.10;;
51714;SDS011;39115;59.332;18.034;2023-02-22T06:29:59;13.13;;;4.03;;
51714;SDS011;39115;59.332;18.034;2023-02-22T06:32:20;5.53;;;3.40;;
51714;SDS011;39115;59.332;18.034;2023-02-22T06:34:40;5.55;;;3.17;;
51714;SDS011;39115;59.332;18.034;2023-02-22T06:37:01;5.40;;;2.97;;
51714;SDS011;39115;59.332;18.034;2023-02-22T06:39:21;6.35;;;3.58;;
51714;SDS011;39115;59.332;18.034;2023-02-22T06:41:43;6.00;;;3.13;;
51714;SDS011;39115;59.332;18.034;2023-02-22T06:44:05;5.38;;;2.88;;
51714;SDS011;39115;59.332;18.034;2023-02-22T06:46:25;7.60;;;3.22;;
51714;SDS011;39115;59.332;18.034;2023-02-22T06:48:46;6.82;;;3.47;;
51714;SDS011;39115;59.332;18.034;2023-02-22T06:51:07;4.53;;;2.78;;
51714;SDS011;39115;59.332;18.034;2023-02-22T06:53:28;6.05;;;2.95;;
51714;SDS011;39115;59.332;18.034;2023-02-22T06:55:49;7.13;;;3.42;;
51714;SDS011;39115;59.332;18.034;2023-02-22T06:58:12;5.75;;;2.40;;
51714;SDS011;39115;59.332;18.034;2023-02-22T07:00:33;5.13;;;3.15;;
51714;SDS011;39115;59.332;18.034;2023-02-22T07:02:54;5.22;;;2.78;;
51714;SDS011;39115;59.332;18.034;2023-02-22T07:05:16;5.53;;;2.67;;
51714;SDS011;39115;59.332;18.034;2023-02-22T07:07:38;5.45;;;2.92;;
51714;SDS011;39115;59.332;18.034;2023-02-22T07:09:59;5.40;;;2.55;;
51714;SDS011;39115;59.332;18.034;2023-02-22T07:12:21;5.15;;;2.58;;
51714;SDS011;39115;59.332;18.034;2023-02-22T07:14:41;4.55;;;3.10;;
51714;SDS011;39115;59.332;18.034;2023-02-22T07:17:02;4.50;;;2.80;;
51714;SDS011;39115;59.332;18.034;2023-02-22T07:19:22;4.38;;;2.58;;
51714;SDS011;39115;59.332;18.034;2023-02-22T07:21:43;8.18;;;3.38;;
51714;SDS011;39115;59.332;18.034;2023-02-22T07:24:06;7.60;;;2.60;;
51714;SDS011;39115;59.332;18.034;2023-02-22T07:26:27;4.18;;;2.80;;
51714;SDS011;39115;59.332;18.034;2023-02-22T07:28:48;6.47;;;2.88;;
51714;SDS011;39115;59.332;18.034;2023-02-22T07:31:09;7.28;;;2.70;;
51714;SDS011;39115;59.332;18.034;2023-02-22T07:33:29;6.03;;;2.55;;
51714;SDS011;39115;59.332;18.034;2023-02-22T07:35:50;4.38;;;2.55;;
51714;SDS011;39115;59.332;18.034;2023-02-22T07:38:11;6.47;;;2.97;;
51714;SDS011;39115;59.332;18.034;2023-02-22T07:40:33;8.35;;;2.75;;
51714;SDS011;39115;59.332;18.034;2023-02-22T07:45:16;4.90;;;3.00;;
51714;SDS011;39115;59.332;18.034;2023-02-22T07:47:38;7.85;;;3.55;;
51714;SDS011;39115;59.332;18.034;2023-02-22T07:49:58;6.40;;;2.85;;
51714;SDS011;39115;59.332;18.034;2023-02-22T07:52:19;5.63;;;2.85;;
51714;SDS011;39115;59.332;18.034;2023-02-22T07:54:39;5.80;;;2.67;;
51714;SDS011;39115;59.332;18.034;2023-02-22T07:57:00;4.18;;;2.03;;
51714;SDS011;39115;59.332;18.034;2023-02-22T07:59:22;5.88;;;2.63;;
51714;SDS011;39115;59.332;18.034;2023-02-22T08:01:42;4.75;;;2.03;;
51714;SDS011;39115;59.332;18.034;2023-02-22T08:04:03;4.50;;;2.47;;
51714;SDS011;39115;59.332;18.034;2023-02-22T08:06:24;4.28;;;1.98;;
51714;SDS011;39115;59.332;18.034;2023-02-22T08:08:44;3.92;;;1.92;;
51714;SDS011;39115;59.332;18.034;2023-02-22T08:11:05;4.15;;;1.98;;
51714;SDS011;39115;59.332;18.034;2023-02-22T08:13:26;6.45;;;2.78;;
51714;SDS011;39115;59.332;18.034;2023-02-22T08:15:46;6.20;;;2.47;;
51714;SDS011;39115;59.332;18.034;2023-02-22T08:18:09;6.72;;;2.35;;
51714;SDS011;39115;59.332;18.034;2023-02-22T08:20:31;6.38;;;2.92;;
51714;SDS011;39115;59.332;18.034;2023-02-22T08:22:51;4.47;;;2.17;;
51714;SDS011;39115;59.332;18.034;2023-02-22T08:25:13;2.65;;;1.92;;
51714;SDS011;39115;59.332;18.034;2023-02-22T08:27:36;5.07;;;2.30;;
51714;SDS011;39115;59.332;18.034;2023-02-22T08:29:57;3.63;;;1.40;;
51714;SDS011;39115;59.332;18.034;2023-02-22T08:32:17;4.40;;;2.08;;
51714;SDS011;39115;59.332;18.034;2023-02-22T08:34:38;2.75;;;1.70;;
51714;SDS011;39115;59.332;18.034;2023-02-22T08:36:58;3.40;;;1.63;;
51714;SDS011;39115;59.332;18.034;2023-02-22T08:39:19;3.65;;;1.42;;
51714;SDS011;39115;59.332;18.034;2023-02-22T08:41:39;4.30;;;2.10;;
51714;SDS011;39115;59.332;18.034;2023-02-22T08:44:00;3.17;;;1.67;;
51714;SDS011;39115;59.332;18.034;2023-02-22T08:46:21;4.15;;;1.85;;
51714;SDS011;39115;59.332;18.034;2023-02-22T08:48:48;6.40;;;2.42;;
51714;SDS011;39115;59.332;18.034;2023-02-22T08:51:12;3.50;;;1.77;;
51714;SDS011;39115;59.332;18.034;2023-02-22T08:53:32;3.55;;;2.17;;
51714;SDS011;39115;59.332;18.034;2023-02-22T08:55:53;4.82;;;2.42;;
51714;SDS011;39115;59.332;18.034;2023-02-22T08:58:14;4.65;;;2.67;;
51714;SDS011;39115;59.332;18.034;2023-02-22T09:00:34;8.05;;;2.42;;
51714;SDS011;39115;59.332;18.034;2023-02-22T09:03:01;4.53;;;2.05;;
51714;SDS011;39115;59.332;18.034;2023-02-22T09:05:22;3.92;;;2.38;;
51714;SDS011;39115;59.332;18.034;2023-02-22T09:07:43;3.55;;;2.15;;
51714;SDS011;39115;59.332;18.034;2023-02-22T09:10:04;3.38;;;1.90;;
51714;SDS011;39115;59.332;18.034;2023-02-22T09:12:25;5.53;;;2.17;;
51714;SDS011;39115;59.332;18.034;2023-02-22T09:14:45;4.47;;;2.38;;
51714;SDS011;39115;59.332;18.034;2023-02-22T09:17:06;6.00;;;2.25;;
51714;SDS011;39115;59.332;18.034;2023-02-22T09:19:27;8.55;;;2.30;;
51714;SDS011;39115;59.332;18.034;2023-02-22T09:21:51;3.50;;;2.10;;
51714;SDS011;39115;59.332;18.034;2023-02-22T09:24:13;5.60;;;2.13;;
51714;SDS011;39115;59.332;18.034;2023-02-22T09:26:34;5.05;;;1.92;;
51714;SDS011;39115;59.332;18.034;2023-02-22T09:28:58;5.45;;;2.15;;
51714;SDS011;39115;59.332;18.034;2023-02-22T09:31:18;5.32;;;2.05;;
51714;SDS011;39115;59.332;18.034;2023-02-22T09:33:39;5.20;;;2.13;;
51714;SDS011;39115;59.332;18.034;2023-02-22T09:36:01;3.97;;;1.67;;
51714;SDS011;39115;59.332;18.034;2023-02-22T09:38:22;5.07;;;2.15;;
51714;SDS011;39115;59.332;18.034;2023-02-22T09:40:51;5.05;;;2.08;;
51714;SDS011;39115;59.332;18.034;2023-02-22T09:43:20;4.07;;;1.65;;
51714;SDS011;39115;59.332;18.034;2023-02-22T09:46:00;3.38;;;1.80;;
51714;SDS011;39115;59.332;18.034;2023-02-22T09:51:19;3.08;;;1.58;;
51714;SDS011;39115;59.332;18.034;2023-02-22T09:53:43;4.28;;;1.83;;
51714;SDS011;39115;59.332;18.034;2023-02-22T09:56:10;3.35;;;2.30;;
51714;SDS011;39115;59.332;18.034;2023-02-22T09:58:34;6.65;;;2.40;;
51714;SDS011;39115;59.332;18.034;2023-02-22T10:01:41;4.78;;;1.67;;
51714;SDS011;39115;59.332;18.034;2023-02-22T10:06:20;7.57;;;2.20;;
51714;SDS011;39115;59.332;18.034;2023-02-22T10:08:43;4.22;;;1.75;;
51714;SDS011;39115;59.332;18.034;2023-02-22T10:16:36;5.05;;;2.65;;
51714;SDS011;39115;59.332;18.034;2023-02-22T10:19:07;7.55;;;2.63;;
51714;SDS011;39115;59.332;18.034;2023-02-22T10:21:51;4.22;;;2.05;;
51714;SDS011;39115;59.332;18.034;2023-02-22T10:24:31;7.10;;;2.60;;
51714;SDS011;39115;59.332;18.034;2023-02-22T10:27:01;5.03;;;2.92;;
51714;SDS011;39115;59.332;18.034;2023-02-22T10:32:02;4.55;;;2.63;;
51714;SDS011;39115;59.332;18.034;2023-02-22T10:34:25;3.30;;;2.17;;
51714;SDS011;39115;59.332;18.034;2023-02-22T10:36:50;5.05;;;2.30;;
51714;SDS011;39115;59.332;18.034;2023-02-22T10:39:31;3.83;;;2.08;;
51714;SDS011;39115;59.332;18.034;2023-02-22T10:41:58;3.90;;;1.98;;
51714;SDS011;39115;59.332;18.034;2023-02-22T10:44:25;2.50;;;1.75;;
51714;SDS011;39115;59.332;18.034;2023-02-22T10:46:47;2.47;;;1.48;;
51714;SDS011;39115;59.332;18.034;2023-02-22T10:49:08;4.50;;;2.25;;
51714;SDS011;39115;59.332;18.034;2023-02-22T10:51:31;4.45;;;2.28;;
51714;SDS011;39115;59.332;18.034;2023-02-22T10:56:46;3.72;;;2.35;;
51714;SDS011;39115;59.332;18.034;2023-02-22T10:59:11;3.22;;;2.50;;
51714;SDS011;39115;59.332;18.034;2023-02-22T11:01:46;4.28;;;2.28;;
51714;SDS011;39115;59.332;18.034;2023-02-22T11:04:13;3.78;;;2.47;;
51714;SDS011;39115;59.332;18.034;2023-02-22T11:06:37;3.05;;;1.83;;
51714;SDS011;39115;59.332;18.034;2023-02-22T11:09:15;5.40;;;1.70;;
51714;SDS011;39115;59.332;18.034;2023-02-22T11:11:38;5.25;;;1.80;;
51714;SDS011;39115;59.332;18.034;2023-02-22T11:14:05;2.63;;;1.80;;
51714;SDS011;39115;59.332;18.034;2023-02-22T11:17:00;3.03;;;1.63;;
51714;SDS011;39115;59.332;18.034;2023-02-22T11:19:26;3.22;;;1.73;;
51714;SDS011;39115;59.332;18.034;2023-02-22T11:21:52;4.25;;;1.92;;
51714;SDS011;39115;59.332;18.034;2023-02-22T11:24:18;3.30;;;2.10;;
51714;SDS011;39115;59.332;18.034;2023-02-22T11:26:44;4.25;;;1.77;;
51714;SDS011;39115;59.332;18.034;2023-02-22T11:29:09;2.65;;;1.88;;
51714;SDS011;39115;59.332;18.034;2023-02-22T11:31:33;2.67;;;1.90;;
51714;SDS011;39115;59.332;18.034;2023-02-22T11:34:01;4.55;;;1.92;;
51714;SDS011;39115;59.332;18.034;2023-02-22T11:36:36;6.90;;;2.80;;
51714;SDS011;39115;59.332;18.034;2023-02-22T11:39:02;3.03;;;2.08;;
51714;SDS011;39115;59.332;18.034;2023-02-22T11:41:25;2.40;;;1.35;;
51714;SDS011;39115;59.332;18.034;2023-02-22T11:43:49;3.67;;;1.73;;
51714;SDS011;39115;59.332;18.034;2023-02-22T11:46:22;2.33;;;1.63;;
51714;SDS011;39115;59.332;18.034;2023-02-22T11:53:58;2.97;;;1.83;;
51714;SDS011;39115;59.332;18.034;2023-02-22T11:56:43;2.70;;;1.77;;
51714;SDS011;39115;59.332;18.034;2023-02-22T11:59:11;4.88;;;2.30;;
51714;SDS011;39115;59.332;18.034;2023-02-22T12:01:53;3.20;;;1.95;;
51714;SDS011;39115;59.332;18.034;2023-02-22T12:07:16;3.00;;;2.17;;
51714;SDS011;39115;59.332;18.034;2023-02-22T12:17:41;3.13;;;2.15;;
51714;SDS011;39115;59.332;18.034;2023-02-22T12:20:26;2.88;;;1.80;;
51714;SDS011;39115;59.332;18.034;2023-02-22T12:23:02;5.32;;;2.67;;
51714;SDS011;39115;59.332;18.034;2023-02-22T12:25:27;4.95;;;2.00;;
51714;SDS011;39115;59.332;18.034;2023-02-22T12:27:53;5.32;;;2.33;;
51714;SDS011;39115;59.332;18.034;2023-02-22T12:33:10;9.68;;;2.85;;
51714;SDS011;39115;59.332;18.034;2023-02-22T12:40:55;5.38;;;2.38;;
51714;SDS011;39115;59.332;18.034;2023-02-22T12:43:30;5.78;;;2.30;;
51714;SDS011;39115;59.332;18.034;2023-02-22T12:56:49;3.80;;;1.88;;
51714;SDS011;39115;59.332;18.034;2023-02-22T13:01:55;6.60;;;2.75;;
51714;SDS011;39115;59.332;18.034;2023-02-22T13:04:19;3.88;;;2.47;;
51714;SDS011;39115;59.332;18.034;2023-02-22T13:06:44;6.13;;;3.05;;
51714;SDS011;39115;59.332;18.034;2023-02-22T13:15:13;4.07;;;1.90;;
51714;SDS011;39115;59.332;18.034;2023-02-22T13:20:14;3.60;;;1.90;;
51714;SDS011;39115;59.332;18.034;2023-02-22T13:25:47;5.38;;;1.65;;
51714;SDS011;39115;59.332;18.034;2023-02-22T13:28:23;4.43;;;1.92;;
51714;SDS011;39115;59.332;18.034;2023-02-22T13:33:42;3.95;;;2.05;;
51714;SDS011;39115;59.332;18.034;2023-02-22T13:41:40;2.70;;;1.70;;
51714;SDS011;39115;59.332;18.034;2023-02-22T13:52:08;6.20;;;2.35;;
51714;SDS011;39115;59.332;18.034;2023-02-22T13:57:25;5.32;;;2.60;;
51714;SDS011;39115;59.332;18.034;2023-02-22T14:00:42;4.93;;;2.78;;
51714;SDS011;39115;59.332;18.034;2023-02-22T14:07:55;5.78;;;2.22;;
51714;SDS011;39115;59.332;18.034;2023-02-22T14:13:03;3.47;;;2.10;;
51714;SDS011;39115;59.332;18.034;2023-02-22T14:15:24;4.45;;;2.55;;
51714;SDS011;39115;59.332;18.034;2023-02-22T14:17:47;7.40;;;3.22;;
51714;SDS011;39115;59.332;18.034;2023-02-22T14:22:35;7.22;;;3.42;;
51714;SDS011;39115;59.332;18.034;2023-02-22T14:24:56;5.55;;;2.72;;
51714;SDS011;39115;59.332;18.034;2023-02-22T14:27:17;5.65;;;3.05;;
51714;SDS011;39115;59.332;18.034;2023-02-22T14:29:47;5.82;;;2.83;;
51714;SDS011;39115;59.332;18.034;2023-02-22T14:32:13;6.55;;;3.00;;
51714;SDS011;39115;59.332;18.034;2023-02-22T14:34:46;4.38;;;2.95;;
51714;SDS011;39115;59.332;18.034;2023-02-22T14:37:24;6.63;;;3.75;;
51714;SDS011;39115;59.332;18.034;2023-02-22T14:43:08;4.57;;;2.78;;
51714;SDS011;39115;59.332;18.034;2023-02-22T14:45:35;8.98;;;2.53;;
51714;SDS011;39115;59.332;18.034;2023-02-22T14:53:03;3.00;;;2.03;;
51714;SDS011;39115;59.332;18.034;2023-02-22T14:55:33;4.40;;;2.13;;
51714;SDS011;39115;59.332;18.034;2023-02-22T15:00:43;3.25;;;1.80;;
51714;SDS011;39115;59.332;18.034;2023-02-22T15:03:10;4.00;;;2.00;;
51714;SDS011;39115;59.332;18.034;2023-02-22T15:05:38;2.28;;;1.45;;
51714;SDS011;39115;59.332;18.034;2023-02-22T15:08:00;5.00;;;1.65;;
51714;SDS011;39115;59.332;18.034;2023-02-22T15:12:49;7.53;;;2.08;;
51714;SDS011;39115;59.332;18.034;2023-02-22T15:15:27;3.40;;;1.80;;
51714;SDS011;39115;59.332;18.034;2023-02-22T15:17:56;3.75;;;1.83;;
51714;SDS011;39115;59.332;18.034;2023-02-22T15:20:18;3.53;;;1.73;;
51714;SDS011;39115;59.332;18.034;2023-02-22T15:22:39;1.90;;;1.45;;
51714;SDS011;39115;59.332;18.034;2023-02-22T15:25:02;2.22;;;1.45;;
51714;SDS011;39115;59.332;18.034;2023-02-22T15:27:26;5.25;;;1.80;;
51714;SDS011;39115;59.332;18.034;2023-02-22T15:29:47;1.73;;;1.20;;
51714;SDS011;39115;59.332;18.034;2023-02-22T15:37:37;3.40;;;1.60;;
51714;SDS011;39115;59.332;18.034;2023-02-22T15:40:07;4.05;;;1.30;;
51714;SDS011;39115;59.332;18.034;2023-02-22T15:42:41;3.63;;;1.48;;
51714;SDS011;39115;59.332;18.034;2023-02-22T15:45:16;3.00;;;1.70;;
51714;SDS011;39115;59.332;18.034;2023-02-22T15:47:41;3.65;;;1.55;;
51714;SDS011;39115;59.332;18.034;2023-02-22T15:50:19;3.03;;;2.00;;
51714;SDS011;39115;59.332;18.034;2023-02-22T15:57:48;4.55;;;1.52;;
51714;SDS011;39115;59.332;18.034;2023-02-22T16:00:26;1.95;;;1.58;;
51714;SDS011;39115;59.332;18.034;2023-02-22T16:02:55;3.80;;;1.45;;
51714;SDS011;39115;59.332;18.034;2023-02-22T16:05:17;2.72;;;1.45;;
51714;SDS011;39115;59.332;18.034;2023-02-22T16:07:42;4.60;;;1.45;;
51714;SDS011;39115;59.332;18.034;2023-02-22T16:10:07;5.18;;;2.00;;
51714;SDS011;39115;59.332;18.034;2023-02-22T16:12:36;2.97;;;1.27;;
51714;SDS011;39115;59.332;18.034;2023-02-22T16:14:56;6.05;;;2.50;;
51714;SDS011;39115;59.332;18.034;2023-02-22T16:20:01;6.50;;;1.85;;
51714;SDS011;39115;59.332;18.034;2023-02-22T16:22:44;3.83;;;1.70;;
51714;SDS011;39115;59.332;18.034;2023-02-22T16:25:13;2.70;;;1.65;;
51714;SDS011;39115;59.332;18.034;2023-02-22T16:27:40;3.45;;;1.70;;
51714;SDS011;39115;59.332;18.034;2023-02-22T16:30:20;2.40;;;1.45;;
51714;SDS011;39115;59.332;18.034;2023-02-22T16:32:45;9.40;;;2.17;;
51714;SDS011;39115;59.332;18.034;2023-02-22T16:35:06;4.00;;;1.90;;
51714;SDS011;39115;59.332;18.034;2023-02-22T16:37:36;9.68;;;3.22;;
51714;SDS011;39115;59.332;18.034;2023-02-22T16:39:57;7.25;;;3.05;;
51714;SDS011;39115;59.332;18.034;2023-02-22T16:42:18;6.38;;;3.13;;
51714;SDS011;39115;59.332;18.034;2023-02-22T16:44:44;4.88;;;2.50;;
51714;SDS011;39115;59.332;18.034;2023-02-22T16:47:05;7.00;;;3.53;;
51714;SDS011;39115;59.332;18.034;2023-02-22T16:49:25;5.88;;;2.95;;